Home > Products > Valid Products > TAF

000
FTUS45 KFGZ 041134
TAFPGA
TAF
KPGA 041134Z 0412/0512 VRB06KT P6SM FEW250
     FM042000 14010G15KT P6SM SCT250
     FM050300 VRB05KT P6SM SCT250=



000
FTUS45 KFGZ 041134
TAFINW
TAF
KINW 041134Z 0412/0512 VRB06KT P6SM FEW250
     FM041800 16011G18KT P6SM SCT250
     FM050300 24005KT P6SM SCT250=



000
FTUS45 KFGZ 041134
TAFFLG
TAF
KFLG 041134Z 0412/0512 VRB04KT P6SM FEW250
     FM041630 19017G26KT P6SM FEW070 SCT250
     FM050300 VRB03KT P6SM SCT250=



000
FTUS45 KFGZ 041134
TAFPGA
TAF
KPGA 041134Z 0412/0512 VRB06KT P6SM FEW250
     FM042000 14010G15KT P6SM SCT250
     FM050300 VRB05KT P6SM SCT250=



000
FTUS45 KFGZ 041134
TAFFLG
TAF
KFLG 041134Z 0412/0512 VRB04KT P6SM FEW250
     FM041630 19017G26KT P6SM FEW070 SCT250
     FM050300 VRB03KT P6SM SCT250=



000
FTUS45 KFGZ 041134
TAFINW
TAF
KINW 041134Z 0412/0512 VRB06KT P6SM FEW250
     FM041800 16011G18KT P6SM SCT250
     FM050300 24005KT P6SM SCT250=



000
FTUS45 KFGZ 040520
TAFINW
TAF
KINW 040520Z 0406/0506 VRB06KT P6SM FEW250
     FM041800 16011G18KT P6SM FEW250
     FM050300 24005KT P6SM SCT250=



000
FTUS45 KFGZ 040520
TAFFLG
TAF
KFLG 040520Z 0406/0506 VRB04KT P6SM FEW250
     FM041630 19017G26KT P6SM FEW070 SCT250
     FM050300 VRB03KT P6SM SCT250=



000
FTUS45 KFGZ 040520
TAFPGA
TAF
KPGA 040520Z 0406/0506 VRB06KT P6SM FEW250
     FM042000 14010G15KT P6SM FEW250
     FM050300 VRB05KT P6SM SCT250=



000
FTUS45 KFGZ 032324
TAFFLG
TAF
KFLG 032324Z 0400/0424 09008KT P6SM FEW060
     FM040200 VRB04KT P6SM FEW250
     FM041630 19017G26KT P6SM FEW070 SCT250=



000
FTUS45 KFGZ 032324
TAFINW
TAF
KINW 032324Z 0400/0424 VRB06KT P6SM FEW250
     FM041800 16011G18KT P6SM FEW250=



000
FTUS45 KFGZ 032324
TAFFLG
TAF
KFLG 032324Z 0400/0424 09008KT P6SM FEW060
     FM040200 VRB04KT P6SM FEW250
     FM041630 19017G26KT P6SM FEW070 SCT250=



000
FTUS45 KFGZ 032324
TAFINW
TAF
KINW 032324Z 0400/0424 VRB06KT P6SM FEW250
     FM041800 16011G18KT P6SM FEW250=



000
FTUS45 KFGZ 032324
TAFPGA
TAF
KPGA 032324Z 0400/0424 VRB06KT P6SM FEW250
     FM042000 14010G15KT P6SM FEW250=



000
FTUS45 KFGZ 032324
TAFPGA
TAF
KPGA 032324Z 0400/0424 VRB06KT P6SM FEW250
     FM042000 14010G15KT P6SM FEW250=



000
FTUS45 KFGZ 031730
TAFPGA
TAF
KPGA 031730Z 0318/0418 04008KT P6SM SKC
     FM040200 VRB04KT P6SM FEW250=



000
FTUS45 KFGZ 031730
TAFINW
TAF
KINW 031730Z 0318/0418 VRB06KT P6SM SKC=



000
FTUS45 KFGZ 031730
TAFPGA
TAF
KPGA 031730Z 0318/0418 04008KT P6SM SKC
     FM040200 VRB04KT P6SM FEW250=



000
FTUS45 KFGZ 031730
TAFFLG
TAF
KFLG 031730Z 0318/0418 07011G17KT P6SM FEW060
     FM040200 VRB04KT P6SM FEW250=



000
FTUS45 KFGZ 031730
TAFINW
TAF
KINW 031730Z 0318/0418 VRB06KT P6SM SKC=



000
FTUS45 KFGZ 031730
TAFFLG
TAF
KFLG 031730Z 0318/0418 07011G17KT P6SM FEW060
     FM040200 VRB04KT P6SM FEW250=



000
FTUS45 KFGZ 031138
TAFPGA
TAF
KPGA 031138Z 0312/0412 VRB05KT P6SM SKC=



000
FTUS45 KFGZ 031138
TAFINW
TAF
KINW 031138Z 0312/0412 VRB05KT P6SM SKC=



000
FTUS45 KFGZ 031138
TAFFLG
TAF
KFLG 031138Z 0312/0412 06004KT P6SM SKC
     FM031700 08007KT P6SM FEW060
     FM040200 VRB03KT P6SM SKC=



000
FTUS45 KFGZ 030520
TAFPGA
TAF
KPGA 030520Z 0306/0406 VRB04KT P6SM FEW250=



000
FTUS45 KFGZ 030520
TAFINW
TAF
KINW 030520Z 0306/0406 VRB05KT P6SM SCT090=



000
FTUS45 KFGZ 030520
TAFFLG
TAF
KFLG 030520Z 0306/0406 VRB04KT P6SM FEW040
     FM031000 09008KT P6SM SCT020
     FM031700 VRB06KT P6SM SCT200=



000
FTUS45 KFGZ 030520
TAFPGA
TAF
KPGA 030520Z 0306/0406 VRB04KT P6SM FEW250=



000
FTUS45 KFGZ 030520
TAFFLG
TAF
KFLG 030520Z 0306/0406 VRB04KT P6SM FEW040
     FM031000 09008KT P6SM SCT020
     FM031700 VRB06KT P6SM SCT200=



000
FTUS45 KFGZ 030520
TAFINW
TAF
KINW 030520Z 0306/0406 VRB05KT P6SM SCT090=



000
FTUS45 KFGZ 030217 AAA
TAFINW
TAF AMD
KINW 030217Z 0302/0324 27008G16KT P6SM FEW040 BKN050 OVC070
     FM030300 VRB06KT P6SM SCT060 BKN070
     FM030400 VRB05KT P6SM SCT080=



000
FTUS45 KFGZ 022322
TAFFLG
TAF
KFLG 022322Z 0300/0324 09010KT P6SM VCSH BKN040
      TEMPO 0300/0301 VRB10G20KT -TSRA OVC040CB
     FM030100 VRB04KT P6SM SCT040
     FM031000 07007KT P6SM SCT020
     FM031700 VRB06KT P6SM SCT200=



000
FTUS45 KFGZ 022322
TAFINW
TAF
KINW 022322Z 0300/0324 VRB06KT P6SM SCT060 BKN070
     FM030400 VRB05KT P6SM SCT080=



000
FTUS45 KFGZ 022322
TAFPGA
TAF
KPGA 022322Z 0300/0324 07007KT P6SM SCT070
     FM030200 VRB04KT P6SM FEW250=



000
FTUS45 KFGZ 022322
TAFFLG
TAF
KFLG 022322Z 0300/0324 09010KT P6SM VCSH BKN040
      TEMPO 0300/0301 VRB10G20KT -TSRA OVC040CB
     FM030100 VRB04KT P6SM SCT040
     FM031000 07007KT P6SM SCT020
     FM031700 VRB06KT P6SM SCT200=



000
FTUS45 KFGZ 022322
TAFINW
TAF
KINW 022322Z 0300/0324 VRB06KT P6SM SCT060 BKN070
     FM030400 VRB05KT P6SM SCT080=



000
FTUS45 KFGZ 022322
TAFPGA
TAF
KPGA 022322Z 0300/0324 07007KT P6SM SCT070
     FM030200 VRB04KT P6SM FEW250=



000
FTUS45 KFGZ 022228 AAC
TAFFLG
TAF AMD
KFLG 022228Z 0222/0318 09010KT P6SM VCTS BKN035CB
      TEMPO 0222/0301 VRB10G20KT -TSRA
     FM030100 VRB03KT P6SM SCT040=



000
FTUS45 KFGZ 022228 AAC
TAFFLG
TAF AMD
KFLG 022228Z 0222/0318 09010KT P6SM VCTS BKN035CB
      TEMPO 0222/0301 VRB10G20KT -TSRA
     FM030100 VRB03KT P6SM SCT040=



000
FTUS45 KFGZ 022046 AAB
TAFFLG
TAF AMD
KFLG 022046Z 0221/0318 09010KT P6SM BKN030
      TEMPO 0221/0224 VRB10G20KT -SHRA
     FM030230 VRB03KT P6SM FEW040=



000
FTUS45 KFGZ 021902 AAA
TAFFLG
TAF AMD
KFLG 021902Z 0219/0318 09010KT P6SM BKN025
      TEMPO 0219/0220 SCT025
     FM022030 09010KT P6SM SCT025 BKN035
     FM030230 VRB03KT P6SM FEW040=



000
FTUS45 KFGZ 021730
TAFINW
TAF
KINW 021730Z 0218/0318 VRB06KT P6SM SCT025
     FM022100 VRB06KT P6SM SCT060 BKN080
     FM030200 VRB05KT P6SM SCT080=



000
FTUS45 KFGZ 021730
TAFFLG
TAF
KFLG 021730Z 0218/0318 09008KT P6SM BKN013
      TEMPO 0218/0219 SCT013
     FM021930 09006KT P6SM SCT015 BKN035
     FM030230 VRB03KT P6SM FEW060=



000
FTUS45 KFGZ 021730
TAFPGA
TAF
KPGA 021730Z 0218/0318 02007KT P6SM SCT045 OVC070
     FM030200 VRB04KT P6SM SCT060=



000
FTUS45 KFGZ 021601 AAB
TAFFLG
TAF AMD
KFLG 021601Z 0216/0312 09008KT P6SM OVC010
      TEMPO 0217/0218 SCT010
     FM021800 09006KT P6SM SCT015 BKN035
     FM030230 VRB03KT P6SM FEW060=



000
FTUS45 KFGZ 021601 AAB
TAFFLG
TAF AMD
KFLG 021601Z 0216/0312 09008KT P6SM OVC010
      TEMPO 0217/0218 SCT010
     FM021800 09006KT P6SM SCT015 BKN035
     FM030230 VRB03KT P6SM FEW060=



000
FTUS45 KFGZ 021403 AAA
TAFFLG
TAF AMD
KFLG 021403Z 0214/0312 VRB03KT P6SM SCT010
      TEMPO 0214/0216 BKN010
     FM021630 VRB05KT P6SM FEW010 SCT060
     FM021930 09006KT P6SM FEW040 BKN060
     FM030300 VRB03KT P6SM FEW060=



000
FTUS45 KFGZ 021129
TAFPGA
TAF
KPGA 021129Z 0212/0312 VRB03KT P6SM SCT040 OVC060
      TEMPO 0212/0215 BKN040
     FM021800 02007KT P6SM BKN060
     FM030200 VRB04KT P6SM SCT060=



000
FTUS45 KFGZ 021129
TAFFLG
TAF
KFLG 021129Z 0212/0312 VRB03KT P6SM FEW010
     FM021600 VRB05KT P6SM FEW060
     FM021930 09006KT P6SM FEW040 BKN060 PROB30 0222/0301 VRB10G20KT
      5SM -SHRA BR BKN040
     FM030300 VRB03KT P6SM FEW060=



000
FTUS45 KFGZ 021129
TAFINW
TAF
KINW 021129Z 0212/0312 12005KT P6SM SCT020
      TEMPO 0212/0214 BKN020
     FM021800 VRB05KT P6SM SCT060 SCT080
     FM022200 24008KT P6SM SCT060 BKN080
     FM030200 VRB05KT P6SM SCT080=



000
FTUS45 KFGZ 020828 AAA
TAFFLG
TAF AMD
KFLG 020828Z 0208/0306 VRB02KT 2SM BR BKN002
      TEMPO 0208/0211 1/2SM FZFG OVC001
     FM021100 VRB03KT P6SM VCFG SCT002 BKN008
     FM021400 VRB05KT P6SM SCT010 SCT060
     FM021900 07007KT P6SM VCSH BKN035=



000
FTUS45 KFGZ 020828 AAA
TAFFLG
TAF AMD
KFLG 020828Z 0208/0306 VRB02KT 2SM BR BKN002
      TEMPO 0208/0211 1/2SM FZFG OVC001
     FM021100 VRB03KT P6SM VCFG SCT002 BKN008
     FM021400 VRB05KT P6SM SCT010 SCT060
     FM021900 07007KT P6SM VCSH BKN035=



000
FTUS45 KFGZ 020522
TAFFLG
TAF
KFLG 020522Z 0206/0306 VRB05KT P6SM VCFG SCT012
     FM021000 VRB05KT P6SM VCFG BKN015
     FM021400 VRB05KT P6SM SCT015 SCT050
     FM021800 07007KT P6SM VCSH BKN035=



000
FTUS45 KFGZ 020522
TAFPGA
TAF
KPGA 020522Z 0206/0306 VRB05KT P6SM FEW040 SCT110
     FM021800 04010KT P6SM BKN070=



000
FTUS45 KFGZ 020522
TAFINW
TAF
KINW 020522Z 0206/0306 VRB05KT P6SM VCFG SCT035 BKN050
     FM021800 VRB05KT P6SM BKN050=



000
FTUS45 KFGZ 020522
TAFPGA
TAF
KPGA 020522Z 0206/0306 VRB05KT P6SM FEW040 SCT110
     FM021800 04010KT P6SM BKN070=



000
FTUS45 KFGZ 020522
TAFINW
TAF
KINW 020522Z 0206/0306 VRB05KT P6SM VCFG SCT035 BKN050
     FM021800 VRB05KT P6SM BKN050=



000
FTUS45 KFGZ 020522
TAFFLG
TAF
KFLG 020522Z 0206/0306 VRB05KT P6SM VCFG SCT012
     FM021000 VRB05KT P6SM VCFG BKN015
     FM021400 VRB05KT P6SM SCT015 SCT050
     FM021800 07007KT P6SM VCSH BKN035=



000
FTUS45 KFGZ 012320
TAFFLG
TAF
KFLG 012320Z 0200/0224 17005KT P6SM SCT020 BKN035
     FM020400 VRB02KT P6SM VCFG SCT012 BKN020
     FM020600 VRB02KT 1SM BR BKN006
     FM021500 VRB04KT P6SM SCT015 SCT050
     FM021800 07007KT P6SM BKN035 PROB30 0218/0224 5SM -SHRA=



000
FTUS45 KFGZ 012320
TAFINW
TAF
KINW 012320Z 0200/0224 28011KT P6SM VCSH SCT025 BKN035
      TEMPO 0200/0201 -SHRA BKN025
     FM020400 VRB04KT P6SM VCFG SCT035 BKN050
     FM021800 VRB04KT P6SM BKN050=



000
FTUS45 KFGZ 012320
TAFPGA
TAF
KPGA 012320Z 0200/0224 VRB05KT P6SM FEW040 SCT110
     FM021800 04010KT P6SM BKN070=



000
FTUS45 KFGZ 012149 AAC
TAFINW
TAF AMD
KINW 012149Z 0122/0218 28011KT P6SM VCSH SCT025 BKN035
      TEMPO 0122/0201 -SHRA BKN025
     FM020400 VRB04KT P6SM VCFG SCT035 BKN050
     FM021500 VRB04KT P6SM SCT050=



000
FTUS45 KFGZ 012010 AAB
TAFINW
TAF AMD
KINW 012010Z 0120/0218 25010KT P6SM -SHRA SCT035 OVC050
     FM012100 28011KT P6SM BKN045 BKN060
     FM020400 VRB04KT P6SM VCFG SCT035 BKN050
     FM021500 VRB04KT P6SM SCT050=



000
FTUS45 KFGZ 011931 AAA
TAFFLG
TAF AMD
KFLG 011931Z 0120/0218 17005KT P6SM VCSH SCT009 BKN020 OVC045
      TEMPO 0120/0123 3SM -SHRA BR OVC010
     FM020200 VRB03KT P6SM VCFG SCT008 BKN012 OVC020
     FM020600 VRB02KT 2SM BR BKN008
     FM021500 VRB04KT P6SM SCT015 SCT050=



000
FTUS45 KFGZ 011907 AAA
TAFPGA
TAF AMD
KPGA 011907Z 0119/0218 09011KT P6SM SCT045 BKN060 OVC110
     FM020200 VRB05KT P6SM BKN080 BKN110=



000
FTUS45 KFGZ 011907 AAA
TAFPGA
TAF AMD
KPGA 011907Z 0119/0218 09011KT P6SM SCT045 BKN060 OVC110
     FM020200 VRB05KT P6SM BKN080 BKN110=



000
FTUS45 KFGZ 011905 AAA
TAFINW
TAF AMD
KINW 011905Z 0119/0218 28011KT P6SM -SHRA SCT035 OVC050
     FM012000 29011KT P6SM BKN045 BKN060
     FM020400 VRB04KT P6SM VCFG SCT035 BKN050
     FM021500 VRB04KT P6SM SCT050=



000
FTUS45 KFGZ 011735
TAFINW
TAF
KINW 011735Z 0118/0218 00000KT P6SM -RA SCT025 BKN030 OVC045
     FM012000 24006KT P6SM BKN045 BKN060
     FM020400 VRB04KT P6SM VCFG SCT035 BKN050
     FM021500 VRB04KT P6SM SCT050=



000
FTUS45 KFGZ 011735
TAFINW
TAF
KINW 011735Z 0118/0218 00000KT P6SM -RA SCT025 BKN030 OVC045
     FM012000 24006KT P6SM BKN045 BKN060
     FM020400 VRB04KT P6SM VCFG SCT035 BKN050
     FM021500 VRB04KT P6SM SCT050=



000
FTUS45 KFGZ 011735
TAFFLG
TAF
KFLG 011735Z 0118/0218 17005KT P6SM VCSH SCT015 BKN030 OVC045
      TEMPO 0119/0123 3SM -SHRA BR BKN020 OVC030
     FM020200 VRB03KT P6SM VCFG SCT008 BKN012 OVC020
     FM020600 VRB02KT 2SM BR BKN008
     FM021500 VRB04KT P6SM SCT015 SCT050=



000
FTUS45 KFGZ 011735
TAFPGA
TAF
KPGA 011735Z 0118/0218 07010G20KT P6SM -SHRA BKN040 OVC050
      TEMPO 0118/0119 -SHRA OVC040
     FM011900 02010G18KT P6SM SCT045 BKN060
     FM020200 04008KT P6SM BKN080 OVC110=



000
FTUS45 KFGZ 011708 AAB
TAFPGA
TAF AMD
KPGA 011708Z 0117/0212 07010KT P6SM VCSH BKN040 OVC070
      TEMPO 0117/0119 -SHRA OVC040
     FM011900 02010G18KT P6SM SCT060 BKN080
     FM020200 04008KT P6SM BKN080 OVC110=



000
FTUS45 KFGZ 011708 AAB
TAFPGA
TAF AMD
KPGA 011708Z 0117/0212 07010KT P6SM VCSH BKN040 OVC070
      TEMPO 0117/0119 -SHRA OVC040
     FM011900 02010G18KT P6SM SCT060 BKN080
     FM020200 04008KT P6SM BKN080 OVC110=



000
FTUS45 KFGZ 011707 AAA
TAFPGA
TAF AMD
KPGA 011707Z 0117/0212 07010KT P6SM VCSH BKN040 OVC070
      TEMPO 0117/0119 -SHRA OVC040
     FM011900 02010G18KT P6SM SCT060 BKN080
     FM020200 04008KT P6SM BKN080 OVC110=



000
FTUS45 KFGZ 011707 AAA
TAFPGA
TAF AMD
KPGA 011707Z 0117/0212 07010KT P6SM VCSH BKN040 OVC070
      TEMPO 0117/0119 -SHRA OVC040
     FM011900 02010G18KT P6SM SCT060 BKN080
     FM020200 04008KT P6SM BKN080 OVC110=



000
FTUS45 KFGZ 011651 AAD
TAFFLG
TAF AMD
KFLG 011651Z 0117/0212 VRB05KT P6SM VCSH SCT030 OVC045
      TEMPO 0117/0120 3SM -SHRASN BR OVC020
     FM012000 VRB05KT P6SM VCSH SCT020 OVC030
      TEMPO 0120/0124 3SM -SHRASN BR BKN020
     FM020200 VRB03KT P6SM VCFG SCT008 BKN012 OVC020
     FM020600 VRB02KT 3SM BR BKN008=



000
FTUS45 KFGZ 011637 AAB
TAFINW
TAF AMD
KINW 011637Z 0117/0212 VRB06KT P6SM -SHRA BKN030 OVC040
     FM011800 VRB06KT P6SM BKN035
     FM020200 VRB05KT P6SM SCT060 BKN100=



000
FTUS45 KFGZ 011637 AAB
TAFINW
TAF AMD
KINW 011637Z 0117/0212 VRB06KT P6SM -SHRA BKN030 OVC040
     FM011800 VRB06KT P6SM BKN035
     FM020200 VRB05KT P6SM SCT060 BKN100=



000
FTUS45 KFGZ 011601 AAC
TAFFLG
TAF AMD
KFLG 011601Z 0116/0212 VRB05KT 2SM -SN BR SCT008 OVC012
      TEMPO 0116/0118 1SM -SN BR OVC010
     FM011800 VRB05KT P6SM VCSH SCT020 OVC030
      TEMPO 0122/0202 3SM -SHRASN BR BKN020
     FM020300 VRB03KT P6SM VCSH SCT008 BKN012 OVC020
     FM020600 VRB02KT 3SM BR BKN008=



    US Dept of Commerce
    National Oceanic and Atmospheric Administration
    National Weather Service
    1325 East West Highway
    Silver Spring, MD 20910
    Page Author: NWS Internet Services Team
Disclaimer
Information Quality
Credits
Glossary
Privacy Policy
Freedom of Information Act (FOIA)
About Us
Career Opportunities